Time;durP1;ratioP1;P1;durP2;ratioP2;P2;SDS_P1;SDS_P2;PMS_P1;PMS_P2;Temp;Humidity;BMP_temperature;BMP_pressure;BME280_temperature;BME280_humidity;BME280_pressure;Samples;Min_cycle;Max_cycle;Signal;HPM_P1;HPM_P2
2023/01/02 00:00:29;;;;;;;1.40;0.57;;;;;;;4.04;88.38;98155.97;5039512;28;20463;-72
2023/01/02 00:02:53;;;;;;;0.60;0.60;;;;;;;3.95;87.90;98168.81;5093944;28;20042;-71
2023/01/02 00:05:18;;;;;;;0.80;0.70;;;;;;;3.89;88.11;98168.38;5076496;28;20138;-71
2023/01/02 00:07:43;;;;;;;1.17;0.75;;;;;;;3.85;88.54;98173.03;5094787;28;20457;-71
2023/01/02 00:10:08;;;;;;;0.70;0.70;;;;;;;3.81;88.59;98192.66;5067675;27;20520;-71
2023/01/02 00:12:32;;;;;;;0.50;0.47;;;;;;;3.73;88.35;98210.75;5095920;27;20034;-72
2023/01/02 00:14:57;;;;;;;0.55;0.50;;;;;;;3.72;88.81;98216.13;5095974;27;20073;-71
2023/01/02 00:17:21;;;;;;;1.27;1.15;;;;;;;3.69;88.53;98218.97;5052819;28;20051;-71
2023/01/02 00:19:46;;;;;;;0.80;0.80;;;;;;;3.61;88.46;98216.84;5060161;28;20066;-69
2023/01/02 00:22:11;;;;;;;0.80;0.80;;;;;;;3.59;88.61;98226.66;5028974;28;20044;-69
2023/01/02 00:24:35;;;;;;;0.70;0.70;;;;;;;3.50;89.19;98224.63;5068783;28;20040;-69
2023/01/02 00:27:00;;;;;;;0.40;0.40;;;;;;;3.43;89.01;98239.97;5055627;28;20588;-69
2023/01/02 00:29:25;;;;;;;0.82;0.80;;;;;;;3.38;88.43;98244.69;5040050;28;20043;-68
2023/01/02 00:31:49;;;;;;;1.30;1.10;;;;;;;3.25;87.93;98247.28;5034685;28;20070;-68
2023/01/02 00:34:14;;;;;;;14.55;1.20;;;;;;;3.25;87.94;98260.44;5054074;28;20044;-70
2023/01/02 00:36:38;;;;;;;1.50;1.00;;;;;;;3.17;87.67;98267.13;5054625;28;20505;-68
2023/01/02 00:39:03;;;;;;;1.23;1.13;;;;;;;3.18;87.73;98267.03;5037843;28;20438;-68
2023/01/02 00:41:27;;;;;;;0.82;0.82;;;;;;;3.05;87.19;98286.34;5051464;28;20035;-72
2023/01/02 00:43:52;;;;;;;1.55;1.20;;;;;;;3.01;87.27;98304.13;5033154;28;20052;-74
2023/01/02 00:46:17;;;;;;;1.27;1.17;;;;;;;3.06;87.84;98309.06;5040372;28;20719;-73
2023/01/02 00:48:42;;;;;;;1.48;1.23;;;;;;;2.93;87.66;98319.53;5046852;27;20055;-74
2023/01/02 00:51:07;;;;;;;1.42;1.30;;;;;;;2.82;87.01;98325.44;5084111;27;20035;-75
2023/01/02 00:53:32;;;;;;;1.90;1.13;;;;;;;2.84;87.13;98320.09;5101349;27;20050;-74
2023/01/02 00:55:57;;;;;;;3.83;1.30;;;;;;;2.84;87.13;98323.56;5105572;27;20094;-75
2023/01/02 00:58:22;;;;;;;0.68;0.65;;;;;;;2.87;87.34;98320.75;5054759;27;20058;-75
2023/01/02 01:00:48;;;;;;;1.27;1.00;;;;;;;2.87;87.31;98336.53;5085950;27;20066;-73
2023/01/02 01:03:13;;;;;;;1.77;1.13;;;;;;;2.83;87.50;98344.72;5117039;27;20046;-72
2023/01/02 01:05:39;;;;;;;0.68;0.65;;;;;;;2.91;88.12;98345.09;5107120;27;20127;-74
2023/01/02 01:08:04;;;;;;;0.73;0.73;;;;;;;2.83;87.86;98353.44;5049172;27;20513;-77
2023/01/02 01:10:29;;;;;;;0.65;0.65;;;;;;;2.84;87.42;98352.50;5099173;27;20039;-75
2023/01/02 01:12:53;;;;;;;2.13;1.95;;;;;;;2.81;87.52;98368.50;5102996;27;20046;-77
2023/01/02 01:15:18;;;;;;;1.00;0.90;;;;;;;2.73;87.18;98377.78;5069222;27;20028;-76
2023/01/02 01:17:43;;;;;;;0.90;0.90;;;;;;;2.77;87.91;98384.56;5084349;27;20099;-77
2023/01/02 01:20:08;;;;;;;1.20;1.10;;;;;;;2.69;88.27;98369.25;5098732;27;20034;-77
2023/01/02 01:22:33;;;;;;;1.42;1.33;;;;;;;2.61;87.45;98373.25;5084957;27;20255;-78
2023/01/02 01:24:57;;;;;;;1.58;1.38;;;;;;;2.66;88.04;98384.38;5092768;27;20138;-72
2023/01/02 01:27:22;;;;;;;1.02;1.00;;;;;;;2.56;87.76;98381.44;5078752;27;20030;-72
2023/01/02 01:29:46;;;;;;;1.73;1.30;;;;;;;2.54;87.48;98386.78;5085378;27;20035;-69
2023/01/02 01:32:11;;;;;;;1.00;1.00;;;;;;;2.51;87.27;98386.94;5102736;27;20489;-69
2023/01/02 01:34:36;;;;;;;1.25;0.93;;;;;;;2.45;86.93;98391.75;5082804;27;20509;-69
2023/01/02 01:37:00;;;;;;;0.98;0.88;;;;;;;2.28;86.82;98405.84;5064782;27;20047;-70
2023/01/02 01:39:25;;;;;;;1.10;1.00;;;;;;;2.34;86.91;98410.78;5081374;27;20042;-68
2023/01/02 01:41:50;;;;;;;0.77;0.55;;;;;;;2.31;86.89;98418.84;5098939;27;20043;-70
2023/01/02 01:44:43;;;;;;;0.80;0.80;;;;;;;2.37;87.01;98431.63;5061167;27;20035;-68
2023/01/02 01:47:41;;;;;;;0.52;0.52;;;;;;;2.48;86.65;98438.91;5105798;27;20062;-70
2023/01/02 01:50:05;;;;;;;0.40;0.40;;;;;;;2.45;86.84;98455.72;5103735;27;20405;-71
2023/01/02 01:52:33;;;;;;;0.50;0.50;;;;;;;2.44;86.65;98454.03;5080066;27;20479;-71
2023/01/02 01:55:04;;;;;;;0.65;0.65;;;;;;;2.38;86.58;98454.34;5099420;27;20031;-72
2023/01/02 01:57:38;;;;;;;0.65;0.45;;;;;;;2.38;86.57;98461.41;5083683;27;20065;-71
2023/01/02 02:00:03;;;;;;;0.53;0.53;;;;;;;2.44;86.81;98467.16;5102127;27;20034;-72
2023/01/02 02:02:32;;;;;;;0.30;0.30;;;;;;;2.42;86.67;98473.44;5122027;27;20043;-71
2023/01/02 02:04:59;;;;;;;0.70;0.47;;;;;;;2.37;86.52;98473.69;5104151;27;20039;-73
2023/01/02 02:07:24;;;;;;;1.65;0.80;;;;;;;2.39;86.67;98474.47;5104500;27;20077;-73
2023/01/02 02:09:55;;;;;;;0.40;0.40;;;;;;;2.40;87.22;98489.31;5062094;28;20052;-73
2023/01/02 02:12:19;;;;;;;0.77;0.77;;;;;;;2.42;87.31;98482.19;5078607;27;20072;-70
2023/01/02 02:14:44;;;;;;;0.32;0.32;;;;;;;2.31;86.65;98497.72;5093250;27;20084;-68
2023/01/02 02:17:47;;;;;;;1.23;0.63;;;;;;;2.44;86.87;98513.66;5103417;27;20058;-72
2023/01/02 02:20:54;;;;;;;0.30;0.22;;;;;;;2.54;87.27;98514.84;5091851;27;20490;-72
2023/01/02 02:23:27;;;;;;;0.30;0.30;;;;;;;2.36;86.82;98529.03;5097476;27;20576;-73
2023/01/02 02:26:17;;;;;;;0.60;0.57;;;;;;;2.43;86.98;98528.59;5090985;27;20063;-75
2023/01/02 02:29:19;;;;;;;1.17;0.90;;;;;;;2.49;87.12;98530.88;5078702;27;20498;-73
2023/01/02 02:32:03;;;;;;;0.35;0.32;;;;;;;2.52;87.61;98551.75;5088848;27;20059;-74
2023/01/02 02:34:40;;;;;;;0.40;0.40;;;;;;;2.40;87.03;98552.44;5096755;27;20103;-73
2023/01/02 02:37:36;;;;;;;0.20;0.20;;;;;;;2.51;86.92;98560.56;5079708;27;20296;-70
2023/01/02 02:40:30;;;;;;;0.40;0.40;;;;;;;2.48;86.78;98558.09;5097196;27;20038;-69
2023/01/02 02:43:09;;;;;;;0.20;0.20;;;;;;;2.47;87.14;98572.22;5097631;27;20047;-77
2023/01/02 02:45:46;;;;;;;0.43;0.30;;;;;;;2.47;87.25;98582.75;5084233;27;20046;-76
2023/01/02 02:48:19;;;;;;;0.68;0.45;;;;;;;2.27;85.61;98582.97;5068869;27;20046;-78
2023/01/02 02:50:54;;;;;;;0.50;0.50;;;;;;;2.34;84.99;98594.88;5088971;27;20042;-73
2023/01/02 02:53:25;;;;;;;0.85;0.85;;;;;;;2.32;84.99;98591.47;5099632;27;20035;-72
2023/01/02 02:55:53;;;;;;;0.45;0.28;;;;;;;2.30;85.69;98603.84;5078901;27;20091;-74
2023/01/02 02:58:20;;;;;;;0.82;0.40;;;;;;;2.35;86.43;98611.50;5063425;27;20103;-72
2023/01/02 03:00:45;;;;;;;1.75;1.23;;;;;;;2.21;84.62;98628.03;5089335;27;20062;-77
2023/01/02 03:03:19;;;;;;;0.20;0.20;;;;;;;2.11;83.96;98626.81;5116175;27;20038;-69
2023/01/02 03:06:16;;;;;;;0.85;0.50;;;;;;;2.13;84.76;98627.59;5103098;27;20511;-73
2023/01/02 03:09:21;;;;;;;0.10;0.10;;;;;;;2.00;84.34;98634.44;5083393;27;20038;-82
2023/01/02 03:12:02;;;;;;;1.88;0.60;;;;;;;1.90;83.59;98643.72;4999335;28;20132;-76
2023/01/02 03:14:36;;;;;;;0.30;0.30;;;;;;;1.81;83.79;98643.25;5035791;28;20036;-79
2023/01/02 03:17:07;;;;;;;0.80;0.52;;;;;;;1.78;83.34;98642.59;5037920;28;20047;-75
2023/01/02 03:19:42;;;;;;;0.57;0.40;;;;;;;1.86;84.47;98648.28;5045892;28;20410;-67
2023/01/02 03:22:18;;;;;;;2.38;0.70;;;;;;;1.66;83.48;98658.97;5006867;28;20063;-73
2023/01/02 03:24:48;;;;;;;1.00;0.50;;;;;;;1.61;82.95;98680.22;5032434;28;20182;-68
2023/01/02 03:27:19;;;;;;;0.30;0.30;;;;;;;1.49;82.85;98683.44;5032503;28;20091;-68
2023/01/02 03:29:56;;;;;;;0.52;0.50;;;;;;;1.56;82.75;98689.28;5032706;28;20121;-74
2023/01/02 03:32:29;;;;;;;0.30;0.30;;;;;;;1.59;82.71;98689.09;5019397;28;20053;-72
2023/01/02 03:34:53;;;;;;;0.80;0.50;;;;;;;1.53;82.75;98710.44;5000184;28;20039;-73
2023/01/02 03:37:25;;;;;;;1.13;0.50;;;;;;;1.55;82.98;98708.56;5023026;28;20048;-64
2023/01/02 03:39:56;;;;;;;0.20;0.20;;;;;;;1.57;82.56;98722.50;5050716;28;20093;-74
2023/01/02 03:42:38;;;;;;;0.88;0.40;;;;;;;1.56;83.08;98732.16;5027236;28;20048;-76
2023/01/02 03:45:19;;;;;;;1.10;0.88;;;;;;;1.49;82.45;98740.38;5020693;27;20039;-75
2023/01/02 03:47:44;;;;;;;1.80;0.80;;;;;;;1.42;82.39;98734.59;5080940;27;20106;-65
2023/01/02 03:50:20;;;;;;;0.77;0.43;;;;;;;1.44;83.10;98740.63;5102405;27;20058;-66
2023/01/02 03:52:44;;;;;;;1.45;0.82;;;;;;;1.35;82.66;98751.59;5119523;27;20126;-65
2023/01/02 03:55:10;;;;;;;0.52;0.52;;;;;;;1.22;82.08;98756.56;5102210;27;20058;-71
2023/01/02 03:57:58;;;;;;;1.02;0.80;;;;;;;1.18;82.14;98762.03;5101336;27;20059;-65
2023/01/02 04:00:35;;;;;;;1.77;0.47;;;;;;;1.21;82.99;98765.38;5080676;27;20404;-65
2023/01/02 04:03:35;;;;;;;3.75;0.75;;;;;;;1.15;82.16;98777.91;5069472;27;20053;-66
2023/01/02 04:06:08;;;;;;;1.20;0.80;;;;;;;1.15;82.93;98773.53;5087886;27;20409;-67
2023/01/02 04:09:10;;;;;;;1.27;0.77;;;;;;;1.04;82.53;98781.03;5126178;27;20121;-67
2023/01/02 04:11:40;;;;;;;2.85;0.60;;;;;;;0.98;82.42;98784.81;5003632;28;20048;-65
2023/01/02 04:14:16;;;;;;;1.85;0.80;;;;;;;0.98;82.46;98790.06;5002306;28;20059;-64
2023/01/02 04:16:43;;;;;;;2.22;0.60;;;;;;;0.92;82.00;98795.59;4984742;28;20148;-65
2023/01/02 04:19:10;;;;;;;1.17;0.50;;;;;;;0.87;82.49;98809.84;5017452;28;20091;-65
2023/01/02 04:21:39;;;;;;;2.92;2.20;;;;;;;0.91;83.41;98816.63;4983803;28;20136;-65
2023/01/02 04:24:09;;;;;;;2.70;0.65;;;;;;;0.90;83.39;98807.94;4999897;28;20124;-65
2023/01/02 04:26:54;;;;;;;2.22;0.47;;;;;;;0.95;83.38;98813.81;5000280;28;20508;-64
2023/01/02 04:29:18;;;;;;;0.85;0.85;;;;;;;0.77;83.59;98805.94;4999811;28;20124;-67
2023/01/02 04:31:54;;;;;;;1.15;0.52;;;;;;;0.80;83.68;98798.75;5000242;28;20163;-65
2023/01/02 04:34:20;;;;;;;1.42;0.70;;;;;;;0.68;83.25;98801.94;5016208;28;20424;-64
2023/01/02 04:36:45;;;;;;;1.60;1.50;;;;;;;0.70;83.27;98808.81;5017001;28;20539;-65
2023/01/02 04:39:10;;;;;;;0.82;0.50;;;;;;;0.63;83.33;98814.44;5017171;28;20470;-65
2023/01/02 04:41:36;;;;;;;0.57;0.57;;;;;;;0.59;83.42;98820.72;5017074;28;20619;-64
2023/01/02 04:44:01;;;;;;;0.50;0.50;;;;;;;0.56;83.45;98828.75;5001687;28;20045;-64
2023/01/02 04:46:28;;;;;;;1.40;0.85;;;;;;;0.53;83.59;98834.13;5020340;27;20043;-64
2023/01/02 04:48:53;;;;;;;0.43;0.43;;;;;;;0.54;83.41;98833.19;5092686;27;20042;-64
2023/01/02 04:51:17;;;;;;;0.98;0.73;;;;;;;0.52;83.50;98840.28;5101445;27;20137;-64
2023/01/02 04:53:42;;;;;;;1.00;0.75;;;;;;;0.50;83.13;98847.34;5122077;27;20122;-64
2023/01/02 04:56:07;;;;;;;2.00;0.60;;;;;;;0.41;83.35;98853.84;5102098;27;20027;-64
2023/01/02 04:58:32;;;;;;;0.60;0.60;;;;;;;0.43;83.41;98865.13;5104945;27;20146;-65
2023/01/02 05:00:56;;;;;;;0.50;0.40;;;;;;;0.39;83.09;98862.69;5075657;27;20035;-65
2023/01/02 05:03:21;;;;;;;0.60;0.60;;;;;;;0.40;83.08;98872.25;5119327;27;20042;-65
2023/01/02 05:05:46;;;;;;;1.25;1.15;;;;;;;0.30;82.62;98870.03;5073654;27;20454;-65
2023/01/02 05:08:11;;;;;;;3.35;0.80;;;;;;;0.26;82.36;98881.56;5115709;27;20042;-65
2023/01/02 05:10:37;;;;;;;2.80;0.65;;;;;;;0.13;82.62;98885.59;5076085;27;20050;-65
2023/01/02 05:13:01;;;;;;;0.95;0.60;;;;;;;0.23;83.45;98878.22;5076943;27;20069;-65
2023/01/02 05:15:26;;;;;;;1.63;1.02;;;;;;;0.26;83.08;98894.66;5119750;27;20043;-64
2023/01/02 05:17:50;;;;;;;2.00;0.80;;;;;;;0.23;83.01;98888.69;5119270;27;20049;-64
2023/01/02 05:20:15;;;;;;;2.97;0.80;;;;;;;0.26;82.98;98915.63;5100427;27;20041;-65
2023/01/02 05:25:26;;;;;;;1.30;0.80;;;;;;;0.03;82.62;98928.81;5082983;27;20030;-66
2023/01/02 05:27:53;;;;;;;6.35;1.15;;;;;;;0.11;82.87;98939.88;5100538;27;20051;-69
2023/01/02 05:30:17;;;;;;;2.15;1.00;;;;;;;0.07;82.53;98954.00;5101491;27;20117;-67
2023/01/02 05:32:42;;;;;;;1.25;0.80;;;;;;;0.03;82.27;98955.03;5119755;27;20133;-67
2023/01/02 05:35:07;;;;;;;0.45;0.40;;;;;;;0.05;82.13;98966.31;5101207;27;20030;-66
2023/01/02 05:37:31;;;;;;;0.82;0.68;;;;;;;0.06;82.61;98961.91;5101021;27;20049;-65
2023/01/02 05:39:56;;;;;;;3.15;0.90;;;;;;;0.02;82.68;98963.81;5101022;27;20408;-66
2023/01/02 05:42:21;;;;;;;2.20;1.48;;;;;;;-0.03;82.10;98965.78;5070937;27;20130;-65
2023/01/02 05:44:46;;;;;;;0.63;0.63;;;;;;;-0.09;82.02;98971.22;5118198;27;20038;-66
2023/01/02 05:47:11;;;;;;;1.13;0.70;;;;;;;-0.10;81.53;98977.38;5099363;27;20099;-67
2023/01/02 05:49:35;;;;;;;3.65;1.20;;;;;;;-0.07;81.88;98974.66;5100164;27;20121;-66
2023/01/02 05:52:00;;;;;;;2.08;0.90;;;;;;;-0.09;81.07;98971.22;5119005;27;20118;-66
2023/01/02 05:54:25;;;;;;;1.35;0.73;;;;;;;-0.18;81.32;98976.84;5119122;27;20046;-66
2023/01/02 05:56:49;;;;;;;2.90;0.75;;;;;;;-0.11;81.88;98984.38;5099142;27;20054;-65
2023/01/02 05:59:15;;;;;;;1.90;0.98;;;;;;;-0.13;81.34;98993.25;5099973;27;20055;-65
2023/01/02 06:01:39;;;;;;;0.93;0.57;;;;;;;-0.10;81.61;98986.09;5119897;27;20042;-73
2023/01/02 06:04:04;;;;;;;2.65;1.30;;;;;;;-0.12;81.92;98994.94;5119792;27;20954;-72
2023/01/02 06:06:37;;;;;;;2.28;0.75;;;;;;;-0.12;80.76;99001.06;5101303;27;20047;-73
2023/01/02 06:09:03;;;;;;;1.35;1.10;;;;;;;-0.16;80.56;99003.84;5075477;27;20447;-72
2023/01/02 06:11:28;;;;;;;5.93;1.13;;;;;;;-0.18;80.41;99013.50;5077021;27;20043;-72
2023/01/02 06:13:53;;;;;;;1.80;0.93;;;;;;;-0.27;80.21;99006.00;5119046;27;20038;-74
2023/01/02 06:16:18;;;;;;;1.02;0.60;;;;;;;-0.29;80.18;99023.53;5096935;27;20085;-75
2023/01/02 06:18:42;;;;;;;1.90;0.88;;;;;;;-0.19;80.70;99030.13;5105906;27;20035;-74
2023/01/02 06:21:13;;;;;;;1.05;0.70;;;;;;;-0.17;80.31;99052.75;5082545;27;20098;-73
2023/01/02 06:23:38;;;;;;;0.57;0.57;;;;;;;-0.09;80.59;99055.06;5100057;27;20508;-74
2023/01/02 06:26:07;;;;;;;3.38;1.30;;;;;;;-0.19;79.88;99045.84;5099836;27;20625;-73
2023/01/02 06:28:32;;;;;;;1.63;0.45;;;;;;;-0.24;79.32;99060.91;5067315;27;20529;-73
2023/01/02 06:31:05;;;;;;;1.73;0.88;;;;;;;-0.18;79.72;99064.13;5098800;27;20516;-73
2023/01/02 06:33:30;;;;;;;3.08;1.50;;;;;;;-0.35;79.00;99081.41;5098351;27;20095;-72
2023/01/02 06:35:59;;;;;;;2.80;1.35;;;;;;;-0.30;78.84;99085.53;5098673;27;20038;-73
2023/01/02 06:38:24;;;;;;;2.83;1.17;;;;;;;-0.23;78.84;99091.44;5116933;27;20439;-72
2023/01/02 06:40:57;;;;;;;1.10;1.00;;;;;;;-0.20;79.28;99101.75;5098353;27;20769;-74
2023/01/02 06:43:23;;;;;;;0.65;0.63;;;;;;;-0.16;79.44;99104.22;5056521;27;20034;-72
2023/01/02 06:45:48;;;;;;;0.82;0.60;;;;;;;-0.12;79.48;99104.97;5098366;27;20086;-73
2023/01/02 06:48:12;;;;;;;4.45;1.02;;;;;;;-0.14;78.69;99112.03;5081002;27;20062;-73
2023/01/02 06:50:37;;;;;;;0.77;0.70;;;;;;;-0.16;78.54;99103.38;5081117;27;20583;-64
2023/01/02 06:53:02;;;;;;;1.00;0.85;;;;;;;-0.18;78.18;99099.94;5116205;27;20035;-66
2023/01/02 06:55:26;;;;;;;2.20;1.02;;;;;;;-0.16;78.13;99113.84;5081032;27;20090;-66
2023/01/02 06:57:51;;;;;;;3.03;1.27;;;;;;;-0.22;76.99;99106.19;5116148;27;20058;-65
2023/01/02 07:00:17;;;;;;;4.65;1.35;;;;;;;-0.24;77.13;99132.47;5097748;27;20042;-66
2023/01/02 07:02:41;;;;;;;1.65;0.98;;;;;;;-0.21;76.81;99134.09;5099683;27;20134;-66
2023/01/02 07:05:06;;;;;;;2.78;1.05;;;;;;;-0.12;77.44;99136.41;5118237;27;20117;-66
2023/01/02 07:07:31;;;;;;;4.50;1.15;;;;;;;-0.09;77.29;99138.91;5118028;27;20065;-66
2023/01/02 07:09:56;;;;;;;1.05;0.70;;;;;;;-0.01;77.60;99147.38;5101414;27;20500;-74
2023/01/02 07:12:20;;;;;;;1.35;0.85;;;;;;;-0.04;76.58;99157.94;5101520;27;20035;-72
2023/01/02 07:14:45;;;;;;;2.10;0.95;;;;;;;-0.04;76.16;99144.84;5101106;27;20039;-72
2023/01/02 07:17:09;;;;;;;3.85;1.95;;;;;;;-0.04;75.61;99150.09;5103900;27;20440;-73
2023/01/02 07:19:34;;;;;;;1.63;0.90;;;;;;;-0.06;74.86;99157.16;5100618;27;20091;-75
2023/01/02 07:21:59;;;;;;;3.22;1.75;;;;;;;0.01;75.12;99156.00;5099301;27;20043;-73
2023/01/02 07:24:23;;;;;;;1.45;0.85;;;;;;;-0.09;73.97;99154.63;5072182;28;20039;-74
2023/01/02 07:26:48;;;;;;;1.75;0.95;;;;;;;0.06;74.94;99156.69;5077831;27;20092;-73
2023/01/02 07:29:13;;;;;;;2.00;1.00;;;;;;;0.07;74.39;99163.66;5105708;27;20074;-72
2023/01/02 07:31:38;;;;;;;2.47;1.38;;;;;;;0.09;73.72;99171.47;5071018;28;20064;-74
2023/01/02 07:34:03;;;;;;;0.43;0.43;;;;;;;0.23;74.89;99180.50;5063750;27;20046;-74
2023/01/02 07:36:27;;;;;;;2.72;1.27;;;;;;;0.19;73.19;99173.69;5095873;27;20034;-73
2023/01/02 07:38:54;;;;;;;2.50;1.52;;;;;;;0.17;72.39;99170.25;5103945;27;20122;-73
2023/01/02 07:41:22;;;;;;;2.85;0.95;;;;;;;0.20;72.07;99169.31;5102587;27;20031;-74
2023/01/02 07:43:47;;;;;;;2.40;1.30;;;;;;;0.15;70.59;99169.47;5121526;27;20070;-74
2023/01/02 07:46:17;;;;;;;2.13;1.02;;;;;;;0.24;71.65;99166.50;5122323;27;20066;-77
2023/01/02 07:48:42;;;;;;;1.63;1.50;;;;;;;0.33;70.72;99184.53;5102796;27;20078;-74
2023/01/02 07:51:07;;;;;;;1.15;1.05;;;;;;;0.43;70.52;99186.78;5101917;27;20404;-74
2023/01/02 07:53:33;;;;;;;3.08;1.45;;;;;;;0.45;69.17;99187.59;5121073;27;20043;-75
2023/01/02 07:55:59;;;;;;;2.53;1.27;;;;;;;0.61;69.32;99179.06;5102369;27;20046;-73
2023/01/02 07:58:24;;;;;;;1.58;1.08;;;;;;;0.77;69.17;99171.47;5084750;27;20054;-75
2023/01/02 08:00:51;;;;;;;2.25;1.60;;;;;;;0.79;68.13;99184.53;5073340;27;20147;-73
2023/01/02 08:03:15;;;;;;;3.67;1.30;;;;;;;1.34;68.22;99172.66;5118542;27;20104;-75
2023/01/02 08:05:40;;;;;;;1.05;0.98;;;;;;;2.80;65.42;99185.38;5086243;27;20043;-74
2023/01/02 08:08:05;;;;;;;2.15;1.27;;;;;;;4.64;61.14;99175.03;5124410;27;20069;-76
2023/01/02 08:10:30;;;;;;;3.25;1.70;;;;;;;6.14;55.50;99176.03;5132881;27;20050;-76
2023/01/02 08:12:56;;;;;;;2.53;1.50;;;;;;;7.31;54.28;99179.19;5132583;27;20043;-74
2023/01/02 08:15:20;;;;;;;5.20;1.58;;;;;;;8.41;49.14;99187.66;5106547;27;20752;-68
2023/01/02 08:17:45;;;;;;;3.83;1.55;;;;;;;9.70;48.50;99189.72;5076328;27;20380;-66
2023/01/02 08:20:10;;;;;;;2.83;1.88;;;;;;;9.70;48.50;99189.72;5062889;27;20039;-65
2023/01/02 08:22:35;;;;;;;0.95;0.77;;;;;;;11.53;46.57;99196.56;5110394;27;20034;-65
2023/01/02 08:25:00;;;;;;;2.63;1.27;;;;;;;12.19;44.24;99203.47;5089243;27;20523;-67
2023/01/02 08:27:25;;;;;;;2.05;1.40;;;;;;;11.48;37.11;99194.31;5080219;27;20493;-67
2023/01/02 08:29:50;;;;;;;3.03;1.48;;;;;;;11.62;42.64;99203.84;5080491;27;20034;-66
2023/01/02 08:32:15;;;;;;;1.50;1.33;;;;;;;12.12;43.88;99199.63;5080237;27;20413;-65
2023/01/02 08:34:42;;;;;;;3.65;1.38;;;;;;;12.45;42.31;99206.59;5090872;27;20125;-66
2023/01/02 08:37:07;;;;;;;2.70;1.15;;;;;;;12.52;39.83;99198.91;5119250;27;20121;-74
2023/01/02 08:39:32;;;;;;;1.50;1.40;;;;;;;12.17;39.63;99193.91;5120055;27;20130;-75
2023/01/02 08:41:58;;;;;;;2.85;1.50;;;;;;;11.69;40.62;99205.03;5101049;27;20049;-76
2023/01/02 08:44:23;;;;;;;3.13;1.15;;;;;;;11.44;39.79;99205.34;5119877;27;20041;-75
2023/01/02 08:46:47;;;;;;;3.50;1.67;;;;;;;11.09;40.18;99201.06;5099342;27;20393;-75
2023/01/02 08:49:12;;;;;;;1.23;1.10;;;;;;;9.79;39.08;99207.66;5119370;27;20488;-74
2023/01/02 08:51:36;;;;;;;2.42;1.30;;;;;;;9.57;40.05;99209.38;5063636;27;20122;-74
2023/01/02 08:54:02;;;;;;;3.10;1.63;;;;;;;9.62;41.57;99218.72;5092252;27;20129;-76
2023/01/02 08:56:29;;;;;;;1.83;1.27;;;;;;;9.80;41.57;99209.38;5119262;27;20113;-75
2023/01/02 08:58:56;;;;;;;1.40;1.05;;;;;;;10.27;40.14;99206.75;5119043;27;20054;-76
2023/01/02 09:01:23;;;;;;;1.33;1.02;;;;;;;10.14;39.65;99233.44;5100754;27;20043;-74
2023/01/02 09:03:49;;;;;;;1.85;1.42;;;;;;;10.03;39.49;99241.41;5119771;27;20038;-75
2023/01/02 09:06:14;;;;;;;1.60;1.10;;;;;;;10.14;40.94;99236.09;5100806;27;20038;-76
2023/01/02 09:08:38;;;;;;;3.97;1.80;;;;;;;9.70;37.95;99232.31;5100460;27;20129;-76
2023/01/02 09:11:14;;;;;;;3.15;1.70;;;;;;;9.72;40.44;99241.00;5100535;27;20453;-76
2023/01/02 09:13:40;;;;;;;1.40;1.33;;;;;;;9.63;40.41;99238.19;5118672;27;20034;-76
2023/01/02 09:16:05;;;;;;;2.30;1.17;;;;;;;8.79;40.72;99238.97;5118699;27;20042;-75
2023/01/02 09:18:31;;;;;;;4.38;1.50;;;;;;;8.54;43.24;99245.16;5100375;27;20035;-75
2023/01/02 09:20:56;;;;;;;4.80;2.30;;;;;;;8.26;42.08;99254.13;5118738;27;20044;-75
2023/01/02 09:23:20;;;;;;;3.15;1.60;;;;;;;8.22;41.95;99262.44;5080580;27;20046;-74
2023/01/02 09:25:45;;;;;;;2.03;1.55;;;;;;;8.25;42.12;99264.84;5118603;27;20130;-75
2023/01/02 09:28:09;;;;;;;3.20;1.30;;;;;;;8.49;41.61;99268.53;5119468;27;20049;-74
2023/01/02 09:30:34;;;;;;;2.50;1.35;;;;;;;9.24;41.17;99255.28;5119165;27;20102;-74
2023/01/02 09:32:59;;;;;;;2.72;1.88;;;;;;;9.81;40.57;99269.63;5100144;27;20047;-75
2023/01/02 09:35:24;;;;;;;2.90;1.40;;;;;;;10.13;40.36;99269.88;5120522;27;20088;-75
2023/01/02 09:37:49;;;;;;;4.00;1.92;;;;;;;10.33;39.10;99278.19;5119952;27;20346;-77
2023/01/02 09:40:13;;;;;;;1.70;1.38;;;;;;;9.96;36.41;99282.75;5119162;27;20038;-74
2023/01/02 09:42:39;;;;;;;3.83;2.03;;;;;;;10.18;39.34;99291.72;5118765;27;20043;-76
2023/01/02 09:45:06;;;;;;;3.35;1.73;;;;;;;9.71;38.45;99291.69;5118751;27;20137;-75
2023/01/02 09:47:31;;;;;;;2.17;1.48;;;;;;;9.46;39.75;99290.00;5118301;27;20038;-74
2023/01/02 09:50:04;;;;;;;2.13;1.50;;;;;;;9.20;41.14;99285.69;5068030;27;20591;-74
2023/01/02 09:52:43;;;;;;;3.28;1.90;;;;;;;8.48;39.29;99304.00;5099627;27;20408;-73
2023/01/02 09:55:41;;;;;;;4.22;1.83;;;;;;;8.70;40.91;99314.00;5099637;27;20049;-74
2023/01/02 09:58:27;;;;;;;2.15;1.52;;;;;;;8.86;40.32;99314.66;5099133;27;20141;-75
2023/01/02 10:00:52;;;;;;;5.95;1.27;;;;;;;8.75;40.93;99298.63;5117929;27;20416;-75
2023/01/02 10:03:32;;;;;;;2.63;1.23;;;;;;;8.72;39.43;99294.34;5117594;27;20397;-76
2023/01/02 10:06:23;;;;;;;1.58;1.20;;;;;;;8.88;41.37;99315.41;5099029;27;20042;-73
2023/01/02 10:09:43;;;;;;;2.33;1.55;;;;;;;9.30;39.38;99294.72;5104058;27;20077;-75
2023/01/02 10:12:16;;;;;;;1.73;1.02;;;;;;;9.61;40.45;99299.50;5017692;28;20491;-75
2023/01/02 10:14:54;;;;;;;4.68;2.05;;;;;;;9.25;39.67;99315.50;5000837;28;20056;-75
2023/01/02 10:17:20;;;;;;;2.03;1.40;;;;;;;8.72;40.63;99314.75;5033779;28;20075;-73
2023/01/02 10:19:51;;;;;;;2.22;1.23;;;;;;;8.43;39.91;99326.53;5033948;28;20102;-75
2023/01/02 10:22:23;;;;;;;3.83;1.50;;;;;;;8.44;39.85;99326.44;5034273;28;20040;-75
2023/01/02 10:25:12;;;;;;;1.35;1.20;;;;;;;8.45;42.23;99335.25;5017248;28;20122;-74
2023/01/02 10:27:45;;;;;;;3.90;2.08;;;;;;;7.56;40.93;99324.31;5033894;28;20040;-75
2023/01/02 10:30:21;;;;;;;4.43;1.75;;;;;;;8.17;44.68;99339.72;5032407;28;20160;-75
2023/01/02 10:32:57;;;;;;;4.05;1.60;;;;;;;8.21;41.13;99353.66;5037329;28;20056;-76
2023/01/02 10:35:32;;;;;;;3.00;1.75;;;;;;;7.28;41.32;99359.69;5022886;28;20120;-76
2023/01/02 10:37:58;;;;;;;2.30;1.83;;;;;;;6.04;43.42;99352.19;5035602;28;20036;-76
2023/01/02 10:40:24;;;;;;;1.85;1.50;;;;;;;5.35;45.79;99373.66;5016892;28;20052;-74
2023/01/02 10:42:53;;;;;;;4.10;2.08;;;;;;;5.00;47.60;99379.06;5000351;28;20063;-76
2023/01/02 10:45:18;;;;;;;2.60;1.63;;;;;;;4.52;49.59;99377.16;5048003;27;20047;-74
2023/01/02 10:47:43;;;;;;;3.70;1.70;;;;;;;4.10;49.02;99379.34;5099281;27;20508;-74
2023/01/02 10:50:19;;;;;;;2.58;1.38;;;;;;;3.78;49.99;99380.91;5117530;27;20094;-74
2023/01/02 10:52:46;;;;;;;2.35;1.35;;;;;;;3.34;51.90;99378.59;5098045;27;20049;-74
2023/01/02 10:55:11;;;;;;;2.00;1.20;;;;;;;3.24;52.50;99396.59;5117120;27;20408;-73
2023/01/02 10:57:43;;;;;;;3.15;1.13;;;;;;;3.14;53.17;99403.22;5116555;27;20406;-73
2023/01/02 11:00:17;;;;;;;4.47;2.00;;;;;;;2.69;52.12;99405.25;5100476;27;20046;-74
2023/01/02 11:02:49;;;;;;;2.97;1.70;;;;;;;2.53;53.18;99413.78;5118637;27;20412;-74
2023/01/02 11:05:20;;;;;;;1.02;0.93;;;;;;;2.44;54.41;99422.06;5100266;27;20041;-74
2023/01/02 11:07:48;;;;;;;3.42;1.60;;;;;;;2.25;54.92;99436.91;5096631;27;20485;-75
2023/01/02 11:10:33;;;;;;;2.65;1.48;;;;;;;2.12;56.06;99438.34;5098247;27;20042;-74
2023/01/02 11:13:02;;;;;;;2.15;1.08;;;;;;;2.04;55.15;99443.03;5117023;27;20039;-77
2023/01/02 11:15:29;;;;;;;2.75;1.55;;;;;;;1.94;55.96;99460.06;5114411;27;20126;-74
2023/01/02 11:17:54;;;;;;;2.65;1.65;;;;;;;1.93;57.32;99468.88;5069219;28;20043;-69
2023/01/02 11:20:33;;;;;;;3.13;1.23;;;;;;;1.81;56.17;99473.69;5076322;27;20058;-74
2023/01/02 11:23:01;;;;;;;1.67;0.90;;;;;;;1.78;57.02;99492.22;5105655;27;20050;-74
2023/01/02 11:25:44;;;;;;;2.40;1.52;;;;;;;1.72;57.27;99505.59;5061481;27;20035;-75
2023/01/02 11:28:20;;;;;;;3.25;1.42;;;;;;;1.63;57.50;99499.81;5099686;27;20046;-74
2023/01/02 11:30:49;;;;;;;2.88;1.17;;;;;;;1.51;58.00;99500.28;5118013;27;20038;-76
2023/01/02 11:33:23;;;;;;;3.50;1.80;;;;;;;1.52;58.22;99499.38;5118799;27;20046;-75
2023/01/02 11:35:51;;;;;;;2.03;1.73;;;;;;;1.38;58.42;99495.47;5098366;27;20433;-73
2023/01/02 11:38:19;;;;;;;2.70;2.15;;;;;;;1.40;58.48;99498.06;5116390;27;20088;-73
2023/01/02 11:40:53;;;;;;;5.13;2.28;;;;;;;1.42;58.80;99485.72;5118520;27;20030;-72
2023/01/02 11:46:13;;;;;;;3.22;1.50;;;;;;;1.23;59.05;99489.94;5099393;27;20035;-69
2023/01/02 11:48:38;;;;;;;4.95;2.20;;;;;;;1.14;58.62;99500.75;5096231;27;20046;-71
2023/01/02 11:51:05;;;;;;;5.13;1.63;;;;;;;1.13;59.24;99505.13;5070563;27;20037;-76
2023/01/02 11:53:38;;;;;;;6.70;2.20;;;;;;;0.96;58.64;99504.88;5067906;27;20047;-74